Berettyoujfalu, Hungary
Current Conditions -  °F | °C
As of 5:45 PM on Thursday 18 Dec 2014 (Local Time) from LHDC Reporting Station
Broken Clouds Broken Clouds  
Wind Chill: 35°   Ceiling: 8300
Heat Index: 39°   Visibility: 4mi
Dew Point: 37°   Wind: 6mph
Humidity: 93%   Direction: 210°SSW
Pressure: 30.06"   Gusts: NA
Location:  47.23°N, 21.54°E
Report Text: LHDC 181545Z 21005KT 7000 BKN083 04/03 Q1018 TEMPO 5000 BR
Loading
Personal Weather Stations






























Interactive Weather Map New forecast layout! Learn more

10-Day Weather Forecast

Advertisements
Track Severe Weather on mobile